Terminal Aerodrome Forecast
Issued by NWS

Home | Current Version | Previous Version | Text Only | Print | Product List | Glossary On
Versions: 1 2 3 4 5 6 7 8 9 10 11 12 13 14 15 16 17 18 19 20 21 22 23 24 25 26 27 28
000
FTUS43 KLOT 271301 AAA
TAFGYY
TAF AMD
KGYY 271301Z 2713/2812 25019G32KT 6SM -SHRA SCT008 OVC010
     FM271700 25017G26KT P6SM BKN020
     FM272300 25010G15KT P6SM BKN035
     FM280400 20005KT P6SM BKN060=

USA.gov is the U.S. government's official web portal to all federal, state and local government web resources and services.